sensor_id;sensor_type;location;lat;lon;timestamp;P1;durP1;ratioP1;P2;durP2;ratioP2
39524;SDS011;25203;50.754;6.978;2023-04-01T00:00:53;1.20;;;0.77;;
39524;SDS011;25203;50.754;6.978;2023-04-01T00:02:53;1.00;;;0.60;;
39524;SDS011;25203;50.754;6.978;2023-04-01T00:04:54;0.98;;;0.55;;
39524;SDS011;25203;50.754;6.978;2023-04-01T00:06:55;2.00;;;0.60;;
39524;SDS011;25203;50.754;6.978;2023-04-01T00:08:56;2.80;;;0.80;;
39524;SDS011;25203;50.754;6.978;2023-04-01T00:10:57;2.67;;;1.42;;
39524;SDS011;25203;50.754;6.978;2023-04-01T00:12:57;2.20;;;0.70;;
39524;SDS011;25203;50.754;6.978;2023-04-01T00:14:58;1.60;;;1.23;;
39524;SDS011;25203;50.754;6.978;2023-04-01T00:16:59;1.65;;;0.63;;
39524;SDS011;25203;50.754;6.978;2023-04-01T00:19:00;1.52;;;0.65;;
39524;SDS011;25203;50.754;6.978;2023-04-01T00:21:00;0.63;;;0.50;;
39524;SDS011;25203;50.754;6.978;2023-04-01T00:23:01;1.27;;;0.68;;
39524;SDS011;25203;50.754;6.978;2023-04-01T00:25:02;2.13;;;0.70;;
39524;SDS011;25203;50.754;6.978;2023-04-01T00:27:04;4.25;;;0.70;;
39524;SDS011;25203;50.754;6.978;2023-04-01T00:29:05;1.48;;;1.02;;
39524;SDS011;25203;50.754;6.978;2023-04-01T00:31:06;2.47;;;0.70;;
39524;SDS011;25203;50.754;6.978;2023-04-01T00:33:08;5.20;;;0.68;;
39524;SDS011;25203;50.754;6.978;2023-04-01T00:35:09;0.30;;;0.30;;
39524;SDS011;25203;50.754;6.978;2023-04-01T00:37:10;2.92;;;1.50;;
39524;SDS011;25203;50.754;6.978;2023-04-01T00:39:11;1.70;;;0.70;;
39524;SDS011;25203;50.754;6.978;2023-04-01T00:41:12;3.55;;;0.60;;
39524;SDS011;25203;50.754;6.978;2023-04-01T00:43:16;1.90;;;0.60;;
39524;SDS011;25203;50.754;6.978;2023-04-01T00:45:35;1.00;;;0.52;;
39524;SDS011;25203;50.754;6.978;2023-04-01T00:47:38;2.33;;;0.77;;
39524;SDS011;25203;50.754;6.978;2023-04-01T00:49:39;1.75;;;0.57;;
39524;SDS011;25203;50.754;6.978;2023-04-01T00:51:42;0.82;;;0.52;;
39524;SDS011;25203;50.754;6.978;2023-04-01T00:53:47;2.78;;;0.60;;
39524;SDS011;25203;50.754;6.978;2023-04-01T00:55:57;2.30;;;0.80;;
39524;SDS011;25203;50.754;6.978;2023-04-01T00:58:18;0.77;;;0.60;;
39524;SDS011;25203;50.754;6.978;2023-04-01T01:00:23;1.73;;;0.70;;
39524;SDS011;25203;50.754;6.978;2023-04-01T01:02:26;0.70;;;0.60;;
39524;SDS011;25203;50.754;6.978;2023-04-01T01:04:28;2.38;;;0.50;;
39524;SDS011;25203;50.754;6.978;2023-04-01T01:06:46;0.50;;;0.40;;
39524;SDS011;25203;50.754;6.978;2023-04-01T01:14:01;2.47;;;0.65;;
39524;SDS011;25203;50.754;6.978;2023-04-01T01:16:14;0.88;;;0.40;;
39524;SDS011;25203;50.754;6.978;2023-04-01T01:28:02;0.45;;;0.30;;
39524;SDS011;25203;50.754;6.978;2023-04-01T01:34:27;1.15;;;0.40;;
39524;SDS011;25203;50.754;6.978;2023-04-01T01:36:35;1.30;;;0.57;;
39524;SDS011;25203;50.754;6.978;2023-04-01T01:38:39;0.50;;;0.40;;
39524;SDS011;25203;50.754;6.978;2023-04-01T01:40:41;2.17;;;0.73;;
39524;SDS011;25203;50.754;6.978;2023-04-01T01:42:48;0.47;;;0.38;;
39524;SDS011;25203;50.754;6.978;2023-04-01T01:44:52;2.38;;;0.85;;
39524;SDS011;25203;50.754;6.978;2023-04-01T01:46:55;1.52;;;0.52;;
39524;SDS011;25203;50.754;6.978;2023-04-01T01:48:56;0.73;;;0.40;;
39524;SDS011;25203;50.754;6.978;2023-04-01T01:50:59;1.40;;;0.57;;
39524;SDS011;25203;50.754;6.978;2023-04-01T01:53:18;0.60;;;0.40;;
39524;SDS011;25203;50.754;6.978;2023-04-01T01:55:27;0.80;;;0.50;;
39524;SDS011;25203;50.754;6.978;2023-04-01T01:57:29;1.27;;;0.40;;
39524;SDS011;25203;50.754;6.978;2023-04-01T01:59:35;1.55;;;0.35;;
39524;SDS011;25203;50.754;6.978;2023-04-01T02:01:39;0.40;;;0.40;;
39524;SDS011;25203;50.754;6.978;2023-04-01T02:03:44;0.90;;;0.40;;
39524;SDS011;25203;50.754;6.978;2023-04-01T02:05:45;1.50;;;0.50;;
39524;SDS011;25203;50.754;6.978;2023-04-01T02:07:48;1.55;;;0.50;;
39524;SDS011;25203;50.754;6.978;2023-04-01T02:14:02;1.55;;;0.60;;
39524;SDS011;25203;50.754;6.978;2023-04-01T02:16:16;0.77;;;0.50;;
39524;SDS011;25203;50.754;6.978;2023-04-01T02:18:21;0.40;;;0.20;;
39524;SDS011;25203;50.754;6.978;2023-04-01T02:20:22;0.60;;;0.40;;
39524;SDS011;25203;50.754;6.978;2023-04-01T02:22:28;2.75;;;0.32;;
39524;SDS011;25203;50.754;6.978;2023-04-01T02:24:31;1.45;;;0.40;;
39524;SDS011;25203;50.754;6.978;2023-04-01T02:26:35;0.50;;;0.30;;
39524;SDS011;25203;50.754;6.978;2023-04-01T02:28:36;0.47;;;0.38;;
39524;SDS011;25203;50.754;6.978;2023-04-01T02:30:38;1.65;;;0.50;;
39524;SDS011;25203;50.754;6.978;2023-04-01T02:32:41;0.85;;;0.50;;
39524;SDS011;25203;50.754;6.978;2023-04-01T02:34:42;1.48;;;0.95;;
39524;SDS011;25203;50.754;6.978;2023-04-01T02:36:43;0.45;;;0.40;;
39524;SDS011;25203;50.754;6.978;2023-04-01T02:38:44;1.35;;;0.50;;
39524;SDS011;25203;50.754;6.978;2023-04-01T02:40:47;1.45;;;0.40;;
39524;SDS011;25203;50.754;6.978;2023-04-01T02:42:56;0.75;;;0.43;;
39524;SDS011;25203;50.754;6.978;2023-04-01T02:44:56;1.00;;;0.68;;
39524;SDS011;25203;50.754;6.978;2023-04-01T02:46:57;2.20;;;0.40;;
39524;SDS011;25203;50.754;6.978;2023-04-01T02:48:57;1.83;;;0.50;;
39524;SDS011;25203;50.754;6.978;2023-04-01T02:50:58;1.65;;;0.57;;
39524;SDS011;25203;50.754;6.978;2023-04-01T02:52:59;1.58;;;0.50;;
39524;SDS011;25203;50.754;6.978;2023-04-01T02:54:59;0.80;;;0.30;;
39524;SDS011;25203;50.754;6.978;2023-04-01T02:57:00;0.52;;;0.32;;
39524;SDS011;25203;50.754;6.978;2023-04-01T02:59:00;0.28;;;0.28;;
39524;SDS011;25203;50.754;6.978;2023-04-01T03:01:01;0.63;;;0.38;;
39524;SDS011;25203;50.754;6.978;2023-04-01T03:03:05;3.85;;;0.43;;
39524;SDS011;25203;50.754;6.978;2023-04-01T03:05:06;1.20;;;0.73;;
39524;SDS011;25203;50.754;6.978;2023-04-01T03:07:07;0.80;;;0.30;;
39524;SDS011;25203;50.754;6.978;2023-04-01T03:09:09;1.52;;;0.60;;
39524;SDS011;25203;50.754;6.978;2023-04-01T03:11:10;0.60;;;0.40;;
39524;SDS011;25203;50.754;6.978;2023-04-01T03:13:11;2.00;;;0.50;;
39524;SDS011;25203;50.754;6.978;2023-04-01T03:15:12;0.30;;;0.30;;
39524;SDS011;25203;50.754;6.978;2023-04-01T03:17:17;2.10;;;0.40;;
39524;SDS011;25203;50.754;6.978;2023-04-01T03:19:17;0.95;;;0.40;;
39524;SDS011;25203;50.754;6.978;2023-04-01T03:21:19;4.18;;;0.50;;
39524;SDS011;25203;50.754;6.978;2023-04-01T03:23:21;0.77;;;0.50;;
39524;SDS011;25203;50.754;6.978;2023-04-01T03:25:24;0.63;;;0.30;;
39524;SDS011;25203;50.754;6.978;2023-04-01T03:27:25;1.50;;;0.38;;
39524;SDS011;25203;50.754;6.978;2023-04-01T03:29:25;2.25;;;0.40;;
39524;SDS011;25203;50.754;6.978;2023-04-01T03:31:26;0.50;;;0.38;;
39524;SDS011;25203;50.754;6.978;2023-04-01T03:33:26;1.55;;;0.52;;
39524;SDS011;25203;50.754;6.978;2023-04-01T03:35:27;0.95;;;0.43;;
39524;SDS011;25203;50.754;6.978;2023-04-01T03:37:28;1.00;;;0.30;;
39524;SDS011;25203;50.754;6.978;2023-04-01T03:39:28;0.85;;;0.50;;
39524;SDS011;25203;50.754;6.978;2023-04-01T03:41:30;0.30;;;0.30;;
39524;SDS011;25203;50.754;6.978;2023-04-01T03:43:32;0.77;;;0.40;;
39524;SDS011;25203;50.754;6.978;2023-04-01T03:45:33;1.92;;;0.82;;
39524;SDS011;25203;50.754;6.978;2023-04-01T03:47:34;0.63;;;0.50;;
39524;SDS011;25203;50.754;6.978;2023-04-01T03:49:35;1.70;;;0.45;;
39524;SDS011;25203;50.754;6.978;2023-04-01T03:51:35;0.32;;;0.32;;
39524;SDS011;25203;50.754;6.978;2023-04-01T03:53:36;0.20;;;0.20;;
39524;SDS011;25203;50.754;6.978;2023-04-01T03:55:37;0.95;;;0.32;;
39524;SDS011;25203;50.754;6.978;2023-04-01T03:57:38;0.38;;;0.30;;
39524;SDS011;25203;50.754;6.978;2023-04-01T03:59:38;0.55;;;0.30;;
39524;SDS011;25203;50.754;6.978;2023-04-01T04:01:39;1.67;;;0.32;;
39524;SDS011;25203;50.754;6.978;2023-04-01T04:03:39;0.20;;;0.20;;
39524;SDS011;25203;50.754;6.978;2023-04-01T04:05:47;0.55;;;0.20;;
39524;SDS011;25203;50.754;6.978;2023-04-01T04:07:48;0.25;;;0.25;;
39524;SDS011;25203;50.754;6.978;2023-04-01T04:09:49;1.33;;;0.38;;
39524;SDS011;25203;50.754;6.978;2023-04-01T04:11:50;0.30;;;0.30;;
39524;SDS011;25203;50.754;6.978;2023-04-01T04:13:51;0.63;;;0.40;;
39524;SDS011;25203;50.754;6.978;2023-04-01T04:15:52;0.32;;;0.30;;
39524;SDS011;25203;50.754;6.978;2023-04-01T04:17:53;2.75;;;0.30;;
39524;SDS011;25203;50.754;6.978;2023-04-01T04:19:53;0.88;;;0.40;;
39524;SDS011;25203;50.754;6.978;2023-04-01T04:21:54;0.20;;;0.20;;
39524;SDS011;25203;50.754;6.978;2023-04-01T04:23:54;0.50;;;0.22;;
39524;SDS011;25203;50.754;6.978;2023-04-01T04:25:59;0.30;;;0.30;;
39524;SDS011;25203;50.754;6.978;2023-04-01T04:28:01;0.40;;;0.30;;
39524;SDS011;25203;50.754;6.978;2023-04-01T04:30:02;0.73;;;0.20;;
39524;SDS011;25203;50.754;6.978;2023-04-01T04:32:03;0.40;;;0.40;;
39524;SDS011;25203;50.754;6.978;2023-04-01T04:34:04;0.63;;;0.30;;
39524;SDS011;25203;50.754;6.978;2023-04-01T04:36:05;0.88;;;0.30;;
39524;SDS011;25203;50.754;6.978;2023-04-01T04:38:05;0.55;;;0.25;;
39524;SDS011;25203;50.754;6.978;2023-04-01T04:40:06;0.25;;;0.25;;
39524;SDS011;25203;50.754;6.978;2023-04-01T04:42:07;0.20;;;0.20;;
39524;SDS011;25203;50.754;6.978;2023-04-01T04:44:08;1.35;;;0.30;;
39524;SDS011;25203;50.754;6.978;2023-04-01T04:46:09;0.45;;;0.30;;
39524;SDS011;25203;50.754;6.978;2023-04-01T04:48:11;0.30;;;0.30;;
39524;SDS011;25203;50.754;6.978;2023-04-01T04:50:18;0.20;;;0.20;;
39524;SDS011;25203;50.754;6.978;2023-04-01T04:52:19;0.45;;;0.30;;
39524;SDS011;25203;50.754;6.978;2023-04-01T04:54:20;0.43;;;0.20;;
39524;SDS011;25203;50.754;6.978;2023-04-01T04:56:21;0.63;;;0.30;;
39524;SDS011;25203;50.754;6.978;2023-04-01T04:58:22;0.28;;;0.20;;
39524;SDS011;25203;50.754;6.978;2023-04-01T05:00:22;0.47;;;0.20;;
39524;SDS011;25203;50.754;6.978;2023-04-01T05:02:23;0.20;;;0.20;;
39524;SDS011;25203;50.754;6.978;2023-04-01T05:04:24;0.30;;;0.30;;
39524;SDS011;25203;50.754;6.978;2023-04-01T05:06:25;0.20;;;0.20;;
39524;SDS011;25203;50.754;6.978;2023-04-01T05:08:29;0.20;;;0.20;;
39524;SDS011;25203;50.754;6.978;2023-04-01T05:10:29;0.70;;;0.30;;
39524;SDS011;25203;50.754;6.978;2023-04-01T05:12:31;1.20;;;0.32;;
39524;SDS011;25203;50.754;6.978;2023-04-01T05:14:35;0.30;;;0.30;;
39524;SDS011;25203;50.754;6.978;2023-04-01T05:16:36;0.10;;;0.10;;
39524;SDS011;25203;50.754;6.978;2023-04-01T05:18:37;0.30;;;0.30;;
39524;SDS011;25203;50.754;6.978;2023-04-01T05:20:37;0.20;;;0.20;;
39524;SDS011;25203;50.754;6.978;2023-04-01T05:22:38;0.30;;;0.22;;
39524;SDS011;25203;50.754;6.978;2023-04-01T05:24:39;0.32;;;0.28;;
39524;SDS011;25203;50.754;6.978;2023-04-01T05:26:39;0.28;;;0.20;;
39524;SDS011;25203;50.754;6.978;2023-04-01T05:28:40;1.30;;;0.25;;
39524;SDS011;25203;50.754;6.978;2023-04-01T05:30:41;0.30;;;0.30;;
39524;SDS011;25203;50.754;6.978;2023-04-01T05:32:43;0.73;;;0.20;;
39524;SDS011;25203;50.754;6.978;2023-04-01T05:34:44;0.30;;;0.30;;
39524;SDS011;25203;50.754;6.978;2023-04-01T05:36:45;0.25;;;0.22;;
39524;SDS011;25203;50.754;6.978;2023-04-01T05:38:45;0.70;;;0.20;;
39524;SDS011;25203;50.754;6.978;2023-04-01T05:40:47;0.22;;;0.20;;
39524;SDS011;25203;50.754;6.978;2023-04-01T05:42:47;1.55;;;0.40;;
39524;SDS011;25203;50.754;6.978;2023-04-01T05:44:48;1.95;;;0.40;;
39524;SDS011;25203;50.754;6.978;2023-04-01T05:46:48;0.20;;;0.20;;
39524;SDS011;25203;50.754;6.978;2023-04-01T05:48:49;0.55;;;0.30;;
39524;SDS011;25203;50.754;6.978;2023-04-01T05:50:50;0.30;;;0.30;;
39524;SDS011;25203;50.754;6.978;2023-04-01T05:52:50;0.47;;;0.30;;
39524;SDS011;25203;50.754;6.978;2023-04-01T05:54:51;0.40;;;0.20;;
39524;SDS011;25203;50.754;6.978;2023-04-01T05:56:51;0.28;;;0.28;;
39524;SDS011;25203;50.754;6.978;2023-04-01T05:58:53;0.20;;;0.20;;
39524;SDS011;25203;50.754;6.978;2023-04-01T06:00:59;0.28;;;0.22;;
39524;SDS011;25203;50.754;6.978;2023-04-01T06:03:01;0.30;;;0.30;;
39524;SDS011;25203;50.754;6.978;2023-04-01T06:05:03;0.95;;;0.38;;
39524;SDS011;25203;50.754;6.978;2023-04-01T06:07:13;0.30;;;0.30;;
39524;SDS011;25203;50.754;6.978;2023-04-01T06:09:16;0.50;;;0.40;;
39524;SDS011;25203;50.754;6.978;2023-04-01T06:15:40;1.45;;;0.40;;
39524;SDS011;25203;50.754;6.978;2023-04-01T06:18:00;1.85;;;0.50;;
39524;SDS011;25203;50.754;6.978;2023-04-01T06:22:22;0.55;;;0.30;;
39524;SDS011;25203;50.754;6.978;2023-04-01T06:25:24;0.30;;;0.30;;
39524;SDS011;25203;50.754;6.978;2023-04-01T06:27:24;0.93;;;0.50;;
39524;SDS011;25203;50.754;6.978;2023-04-01T06:34:56;0.50;;;0.50;;
39524;SDS011;25203;50.754;6.978;2023-04-01T06:46:59;0.38;;;0.38;;
39524;SDS011;25203;50.754;6.978;2023-04-01T06:53:56;0.68;;;0.50;;
39524;SDS011;25203;50.754;6.978;2023-04-01T06:56:08;1.27;;;0.50;;
39524;SDS011;25203;50.754;6.978;2023-04-01T06:58:20;2.13;;;0.60;;
39524;SDS011;25203;50.754;6.978;2023-04-01T07:00:44;0.32;;;0.32;;
39524;SDS011;25203;50.754;6.978;2023-04-01T07:02:48;0.77;;;0.60;;
39524;SDS011;25203;50.754;6.978;2023-04-01T07:04:58;0.50;;;0.50;;
39524;SDS011;25203;50.754;6.978;2023-04-01T07:10:06;0.60;;;0.60;;
39524;SDS011;25203;50.754;6.978;2023-04-01T07:11:56;1.75;;;0.73;;
39524;SDS011;25203;50.754;6.978;2023-04-01T07:14:22;1.38;;;0.60;;
39524;SDS011;25203;50.754;6.978;2023-04-01T07:20:55;2.13;;;0.93;;
39524;SDS011;25203;50.754;6.978;2023-04-01T07:22:58;0.65;;;0.65;;
39524;SDS011;25203;50.754;6.978;2023-04-01T07:25:02;0.75;;;0.73;;
39524;SDS011;25203;50.754;6.978;2023-04-01T07:27:11;1.00;;;0.60;;
39524;SDS011;25203;50.754;6.978;2023-04-01T07:29:14;0.70;;;0.70;;
39524;SDS011;25203;50.754;6.978;2023-04-01T07:33:32;1.45;;;0.80;;
39524;SDS011;25203;50.754;6.978;2023-04-01T07:40:40;0.80;;;0.80;;
39524;SDS011;25203;50.754;6.978;2023-04-01T07:51:57;2.45;;;0.68;;
39524;SDS011;25203;50.754;6.978;2023-04-01T07:54:09;1.15;;;0.75;;
39524;SDS011;25203;50.754;6.978;2023-04-01T08:01:04;2.35;;;0.70;;
39524;SDS011;25203;50.754;6.978;2023-04-01T08:05:59;1.50;;;0.70;;
39524;SDS011;25203;50.754;6.978;2023-04-01T08:08:13;0.43;;;0.43;;
39524;SDS011;25203;50.754;6.978;2023-04-01T08:21:38;0.50;;;0.40;;
39524;SDS011;25203;50.754;6.978;2023-04-01T08:23:52;0.50;;;0.50;;
39524;SDS011;25203;50.754;6.978;2023-04-01T08:26:58;0.40;;;0.40;;
39524;SDS011;25203;50.754;6.978;2023-04-01T08:31:03;0.35;;;0.35;;
39524;SDS011;25203;50.754;6.978;2023-04-01T08:33:25;0.98;;;0.50;;
39524;SDS011;25203;50.754;6.978;2023-04-01T08:37:38;0.40;;;0.40;;
39524;SDS011;25203;50.754;6.978;2023-04-01T08:39:42;0.40;;;0.40;;
39524;SDS011;25203;50.754;6.978;2023-04-01T09:00:38;0.63;;;0.60;;
39524;SDS011;25203;50.754;6.978;2023-04-01T09:08:50;0.90;;;0.40;;
39524;SDS011;25203;50.754;6.978;2023-04-01T09:17:50;3.20;;;0.82;;
39524;SDS011;25203;50.754;6.978;2023-04-01T09:22:40;1.98;;;0.50;;
39524;SDS011;25203;50.754;6.978;2023-04-01T09:25:16;0.40;;;0.40;;
39524;SDS011;25203;50.754;6.978;2023-04-01T09:27:44;0.70;;;0.50;;
39524;SDS011;25203;50.754;6.978;2023-04-01T09:32:09;0.80;;;0.40;;
39524;SDS011;25203;50.754;6.978;2023-04-01T09:34:43;0.45;;;0.45;;
39524;SDS011;25203;50.754;6.978;2023-04-01T09:37:20;0.43;;;0.43;;
39524;SDS011;25203;50.754;6.978;2023-04-01T09:41:41;0.68;;;0.55;;
39524;SDS011;25203;50.754;6.978;2023-04-01T09:44:18;1.05;;;0.50;;
39524;SDS011;25203;50.754;6.978;2023-04-01T09:46:54;0.50;;;0.50;;
39524;SDS011;25203;50.754;6.978;2023-04-01T09:49:25;0.77;;;0.63;;
39524;SDS011;25203;50.754;6.978;2023-04-01T09:58:39;0.43;;;0.43;;
39524;SDS011;25203;50.754;6.978;2023-04-01T10:01:25;0.85;;;0.60;;
39524;SDS011;25203;50.754;6.978;2023-04-01T10:06:12;0.60;;;0.60;;
39524;SDS011;25203;50.754;6.978;2023-04-01T10:13:03;0.57;;;0.57;;
39524;SDS011;25203;50.754;6.978;2023-04-01T10:15:11;0.50;;;0.50;;
39524;SDS011;25203;50.754;6.978;2023-04-01T10:20:12;0.57;;;0.57;;
39524;SDS011;25203;50.754;6.978;2023-04-01T11:04:03;1.42;;;0.70;;
39524;SDS011;25203;50.754;6.978;2023-04-01T11:45:46;0.93;;;0.80;;
39524;SDS011;25203;50.754;6.978;2023-04-01T11:50:31;0.68;;;0.65;;
39524;SDS011;25203;50.754;6.978;2023-04-01T12:01:56;1.05;;;0.73;;
39524;SDS011;25203;50.754;6.978;2023-04-01T12:11:44;1.67;;;0.82;;
39524;SDS011;25203;50.754;6.978;2023-04-01T12:14:53;0.68;;;0.68;;
39524;SDS011;25203;50.754;6.978;2023-04-01T12:16:46;0.90;;;0.90;;
39524;SDS011;25203;50.754;6.978;2023-04-01T12:18:59;1.10;;;1.00;;
39524;SDS011;25203;50.754;6.978;2023-04-01T12:21:09;0.70;;;0.70;;
39524;SDS011;25203;50.754;6.978;2023-04-01T12:49:55;3.00;;;0.60;;
39524;SDS011;25203;50.754;6.978;2023-04-01T13:06:28;0.90;;;0.80;;
39524;SDS011;25203;50.754;6.978;2023-04-01T13:08:49;1.02;;;0.77;;
39524;SDS011;25203;50.754;6.978;2023-04-01T13:10:57;0.60;;;0.60;;
39524;SDS011;25203;50.754;6.978;2023-04-01T13:18:14;0.85;;;0.85;;
39524;SDS011;25203;50.754;6.978;2023-04-01T13:20:40;0.90;;;0.90;;
39524;SDS011;25203;50.754;6.978;2023-04-01T13:27:44;1.05;;;0.95;;
39524;SDS011;25203;50.754;6.978;2023-04-01T13:30:01;0.93;;;0.90;;
39524;SDS011;25203;50.754;6.978;2023-04-01T13:36:59;0.70;;;0.70;;
39524;SDS011;25203;50.754;6.978;2023-04-01T13:44:22;0.57;;;0.45;;
39524;SDS011;25203;50.754;6.978;2023-04-01T13:47:11;1.30;;;0.50;;
39524;SDS011;25203;50.754;6.978;2023-04-01T14:06:31;0.80;;;0.80;;
39524;SDS011;25203;50.754;6.978;2023-04-01T14:11:03;1.20;;;1.00;;
39524;SDS011;25203;50.754;6.978;2023-04-01T14:20:06;0.65;;;0.65;;
39524;SDS011;25203;50.754;6.978;2023-04-01T14:29:57;0.70;;;0.70;;
39524;SDS011;25203;50.754;6.978;2023-04-01T14:33:22;1.10;;;1.00;;
39524;SDS011;25203;50.754;6.978;2023-04-01T14:34:59;1.30;;;1.00;;
39524;SDS011;25203;50.754;6.978;2023-04-01T14:37:13;0.90;;;0.80;;
39524;SDS011;25203;50.754;6.978;2023-04-01T14:49:02;3.10;;;0.90;;
39524;SDS011;25203;50.754;6.978;2023-04-01T14:53:33;0.95;;;0.80;;
39524;SDS011;25203;50.754;6.978;2023-04-01T14:57:42;0.90;;;0.90;;
39524;SDS011;25203;50.754;6.978;2023-04-01T15:00:17;0.70;;;0.70;;
39524;SDS011;25203;50.754;6.978;2023-04-01T15:02:25;0.70;;;0.70;;
39524;SDS011;25203;50.754;6.978;2023-04-01T15:16:34;1.13;;;0.80;;
39524;SDS011;25203;50.754;6.978;2023-04-01T15:28:28;1.10;;;1.00;;
39524;SDS011;25203;50.754;6.978;2023-04-01T15:35:19;0.73;;;0.70;;
39524;SDS011;25203;50.754;6.978;2023-04-01T15:37:37;0.80;;;0.80;;
39524;SDS011;25203;50.754;6.978;2023-04-01T15:45:18;0.77;;;0.60;;
39524;SDS011;25203;50.754;6.978;2023-04-01T15:49:36;0.50;;;0.50;;
39524;SDS011;25203;50.754;6.978;2023-04-01T15:56:45;0.70;;;0.70;;
39524;SDS011;25203;50.754;6.978;2023-04-01T16:03:51;0.55;;;0.55;;
39524;SDS011;25203;50.754;6.978;2023-04-01T16:06:29;0.77;;;0.77;;
39524;SDS011;25203;50.754;6.978;2023-04-01T16:21:09;1.52;;;1.42;;
39524;SDS011;25203;50.754;6.978;2023-04-01T16:26:01;1.52;;;0.90;;
39524;SDS011;25203;50.754;6.978;2023-04-01T16:30:38;1.95;;;1.13;;
39524;SDS011;25203;50.754;6.978;2023-04-01T16:37:41;0.70;;;0.70;;
39524;SDS011;25203;50.754;6.978;2023-04-01T16:44:28;1.20;;;0.90;;
39524;SDS011;25203;50.754;6.978;2023-04-01T16:55:16;1.50;;;1.07;;
39524;SDS011;25203;50.754;6.978;2023-04-01T16:59:32;1.17;;;1.08;;
39524;SDS011;25203;50.754;6.978;2023-04-01T17:01:40;1.27;;;1.17;;
39524;SDS011;25203;50.754;6.978;2023-04-01T17:03:51;1.20;;;1.10;;
39524;SDS011;25203;50.754;6.978;2023-04-01T17:08:24;2.55;;;2.05;;
39524;SDS011;25203;50.754;6.978;2023-04-01T17:13:41;1.55;;;1.45;;
39524;SDS011;25203;50.754;6.978;2023-04-01T17:16:10;1.95;;;1.23;;
39524;SDS011;25203;50.754;6.978;2023-04-01T17:20:56;1.50;;;1.38;;
39524;SDS011;25203;50.754;6.978;2023-04-01T17:23:18;1.13;;;1.13;;
39524;SDS011;25203;50.754;6.978;2023-04-01T17:30:42;1.33;;;1.30;;
39524;SDS011;25203;50.754;6.978;2023-04-01T17:32:53;1.52;;;1.40;;
39524;SDS011;25203;50.754;6.978;2023-04-01T17:35:01;1.10;;;1.10;;
39524;SDS011;25203;50.754;6.978;2023-04-01T17:37:18;1.10;;;1.10;;
39524;SDS011;25203;50.754;6.978;2023-04-01T17:42:06;1.73;;;1.40;;
39524;SDS011;25203;50.754;6.978;2023-04-01T17:46:56;1.50;;;1.40;;
39524;SDS011;25203;50.754;6.978;2023-04-01T17:49:27;2.25;;;1.50;;
39524;SDS011;25203;50.754;6.978;2023-04-01T17:51:34;1.48;;;1.38;;
39524;SDS011;25203;50.754;6.978;2023-04-01T17:53:48;1.70;;;1.60;;
39524;SDS011;25203;50.754;6.978;2023-04-01T17:56:17;2.58;;;1.70;;
39524;SDS011;25203;50.754;6.978;2023-04-01T18:17:18;2.47;;;2.05;;
39524;SDS011;25203;50.754;6.978;2023-04-01T18:21:37;2.53;;;2.00;;
39524;SDS011;25203;50.754;6.978;2023-04-01T18:26:04;2.53;;;2.13;;
39524;SDS011;25203;50.754;6.978;2023-04-01T18:30:31;3.75;;;2.20;;
39524;SDS011;25203;50.754;6.978;2023-04-01T18:32:35;3.20;;;2.50;;
39524;SDS011;25203;50.754;6.978;2023-04-01T18:34:57;3.10;;;2.75;;
39524;SDS011;25203;50.754;6.978;2023-04-01T18:39:22;2.65;;;2.45;;
39524;SDS011;25203;50.754;6.978;2023-04-01T18:41:34;3.83;;;3.47;;
39524;SDS011;25203;50.754;6.978;2023-04-01T18:43:46;3.72;;;3.08;;
39524;SDS011;25203;50.754;6.978;2023-04-01T18:45:59;4.43;;;3.40;;
39524;SDS011;25203;50.754;6.978;2023-04-01T18:50:37;3.47;;;3.17;;
39524;SDS011;25203;50.754;6.978;2023-04-01T18:52:59;4.10;;;3.80;;
39524;SDS011;25203;50.754;6.978;2023-04-01T18:55:18;4.25;;;3.78;;
39524;SDS011;25203;50.754;6.978;2023-04-01T18:57:51;3.95;;;3.65;;
39524;SDS011;25203;50.754;6.978;2023-04-01T19:00:02;4.38;;;3.97;;
39524;SDS011;25203;50.754;6.978;2023-04-01T19:04:42;4.43;;;4.03;;
39524;SDS011;25203;50.754;6.978;2023-04-01T19:06:55;4.07;;;3.78;;
39524;SDS011;25203;50.754;6.978;2023-04-01T19:11:47;5.32;;;3.83;;
39524;SDS011;25203;50.754;6.978;2023-04-01T19:16:57;5.07;;;4.68;;
39524;SDS011;25203;50.754;6.978;2023-04-01T19:21:44;4.75;;;4.35;;
39524;SDS011;25203;50.754;6.978;2023-04-01T19:26:16;5.68;;;5.18;;
39524;SDS011;25203;50.754;6.978;2023-04-01T19:30:50;5.40;;;5.00;;
39524;SDS011;25203;50.754;6.978;2023-04-01T19:33:12;5.18;;;4.68;;
39524;SDS011;25203;50.754;6.978;2023-04-01T19:45:06;5.97;;;5.03;;
39524;SDS011;25203;50.754;6.978;2023-04-01T19:52:23;5.38;;;4.85;;
39524;SDS011;25203;50.754;6.978;2023-04-01T19:54:40;5.10;;;4.28;;
39524;SDS011;25203;50.754;6.978;2023-04-01T20:01:48;4.07;;;3.70;;
39524;SDS011;25203;50.754;6.978;2023-04-01T20:04:02;8.13;;;3.78;;
39524;SDS011;25203;50.754;6.978;2023-04-01T20:06:11;4.05;;;3.65;;
39524;SDS011;25203;50.754;6.978;2023-04-01T20:12:59;2.75;;;2.47;;
39524;SDS011;25203;50.754;6.978;2023-04-01T20:17:46;2.55;;;2.35;;
39524;SDS011;25203;50.754;6.978;2023-04-01T20:19:52;2.85;;;2.65;;
39524;SDS011;25203;50.754;6.978;2023-04-01T20:22:10;2.83;;;2.63;;
39524;SDS011;25203;50.754;6.978;2023-04-01T20:24:41;5.10;;;2.50;;
39524;SDS011;25203;50.754;6.978;2023-04-01T20:26:58;2.65;;;2.42;;
39524;SDS011;25203;50.754;6.978;2023-04-01T20:39:10;1.98;;;1.88;;
39524;SDS011;25203;50.754;6.978;2023-04-01T20:41:05;4.22;;;2.15;;
39524;SDS011;25203;50.754;6.978;2023-04-01T20:50:07;5.25;;;2.38;;
39524;SDS011;25203;50.754;6.978;2023-04-01T20:52:37;2.22;;;1.92;;
39524;SDS011;25203;50.754;6.978;2023-04-01T20:59:37;2.70;;;2.50;;
39524;SDS011;25203;50.754;6.978;2023-04-01T21:04:37;3.13;;;2.67;;
39524;SDS011;25203;50.754;6.978;2023-04-01T21:07:02;3.38;;;2.58;;
39524;SDS011;25203;50.754;6.978;2023-04-01T21:09:21;2.85;;;2.65;;
39524;SDS011;25203;50.754;6.978;2023-04-01T21:16:33;2.92;;;2.55;;
39524;SDS011;25203;50.754;6.978;2023-04-01T21:21:16;3.25;;;2.30;;
39524;SDS011;25203;50.754;6.978;2023-04-01T21:28:26;2.95;;;2.75;;
39524;SDS011;25203;50.754;6.978;2023-04-01T21:30:49;3.13;;;2.78;;
39524;SDS011;25203;50.754;6.978;2023-04-01T21:37:42;3.47;;;3.15;;
39524;SDS011;25203;50.754;6.978;2023-04-01T21:40:13;4.45;;;3.60;;
39524;SDS011;25203;50.754;6.978;2023-04-01T21:42:32;3.92;;;3.63;;
39524;SDS011;25203;50.754;6.978;2023-04-01T21:51:55;3.85;;;3.55;;
39524;SDS011;25203;50.754;6.978;2023-04-01T22:01:14;5.05;;;4.45;;
39524;SDS011;25203;50.754;6.978;2023-04-01T22:12:53;5.53;;;4.75;;
39524;SDS011;25203;50.754;6.978;2023-04-01T22:15:18;4.50;;;4.10;;
39524;SDS011;25203;50.754;6.978;2023-04-01T22:17:35;5.03;;;4.60;;
39524;SDS011;25203;50.754;6.978;2023-04-01T22:22:02;5.07;;;4.47;;
39524;SDS011;25203;50.754;6.978;2023-04-01T22:24:11;4.57;;;4.18;;
39524;SDS011;25203;50.754;6.978;2023-04-01T22:26:25;6.78;;;5.25;;
39524;SDS011;25203;50.754;6.978;2023-04-01T22:31:00;6.20;;;5.30;;
39524;SDS011;25203;50.754;6.978;2023-04-01T22:33:05;7.10;;;4.93;;
39524;SDS011;25203;50.754;6.978;2023-04-01T22:35:50;5.47;;;4.90;;
39524;SDS011;25203;50.754;6.978;2023-04-01T22:49:17;6.47;;;5.20;;
39524;SDS011;25203;50.754;6.978;2023-04-01T22:51:38;5.85;;;5.35;;
39524;SDS011;25203;50.754;6.978;2023-04-01T22:53:47;6.05;;;5.45;;
39524;SDS011;25203;50.754;6.978;2023-04-01T22:55:50;6.07;;;5.07;;
39524;SDS011;25203;50.754;6.978;2023-04-01T22:57:59;5.32;;;4.78;;
39524;SDS011;25203;50.754;6.978;2023-04-01T23:00:23;5.30;;;4.80;;
39524;SDS011;25203;50.754;6.978;2023-04-01T23:02:33;5.20;;;4.05;;
39524;SDS011;25203;50.754;6.978;2023-04-01T23:04:39;4.25;;;3.63;;
39524;SDS011;25203;50.754;6.978;2023-04-01T23:06:44;4.57;;;3.35;;
39524;SDS011;25203;50.754;6.978;2023-04-01T23:08:55;3.30;;;3.05;;
39524;SDS011;25203;50.754;6.978;2023-04-01T23:13:37;3.92;;;2.80;;
39524;SDS011;25203;50.754;6.978;2023-04-01T23:15:41;2.80;;;2.45;;